createdAt,value
2018-11-13T00:01:17.622Z,89.64
2018-11-13T00:03:44.749Z,90.11
2018-11-13T00:06:11.995Z,90.12
2018-11-13T00:08:39.200Z,90.70
2018-11-13T00:11:06.424Z,91.10
2018-11-13T00:13:33.605Z,90.75
2018-11-13T00:16:00.916Z,91.13
2018-11-13T00:18:28.137Z,91.34
2018-11-13T00:20:55.260Z,92.13
2018-11-13T00:23:22.457Z,90.30
2018-11-13T00:25:49.665Z,91.69
2018-11-13T00:30:18.820Z,90.97
2018-11-13T00:32:45.974Z,90.50
2018-11-13T00:35:14.012Z,91.10
2018-11-13T00:37:41.279Z,91.85
2018-11-13T00:40:09.689Z,90.98
2018-11-13T00:42:36.913Z,90.79
2018-11-13T00:45:04.533Z,90.39
2018-11-13T00:47:31.677Z,90.02
2018-11-13T00:49:58.820Z,89.88
2018-11-13T00:52:26.033Z,90.83
2018-11-13T00:54:53.255Z,91.96
2018-11-13T00:57:20.430Z,92.87
2018-11-13T00:59:47.707Z,93.79
2018-11-13T01:02:14.862Z,94.60
2018-11-13T01:04:42.149Z,93.96
2018-11-13T01:07:10.379Z,94.67
2018-11-13T01:09:37.548Z,93.74
2018-11-13T01:12:04.752Z,95.40
2018-11-13T01:14:32.040Z,95.85
2018-11-13T01:16:59.189Z,96.72
2018-11-13T01:19:26.346Z,97.05
2018-11-13T01:21:53.532Z,96.06
2018-11-13T01:24:20.694Z,95.84
2018-11-13T01:26:47.865Z,96.90
2018-11-13T01:29:15.078Z,97.24
2018-11-13T01:31:42.321Z,97.58
2018-11-13T01:34:09.444Z,97.37
2018-11-13T01:36:36.641Z,97.21
2018-11-13T01:39:06.113Z,97.63
2018-11-13T01:41:33.273Z,98.80
2018-11-13T01:44:00.535Z,99.26
2018-11-13T01:46:27.710Z,99.36
2018-11-13T01:48:55.240Z,98.24
2018-11-13T01:51:22.077Z,98.88
2018-11-13T01:53:49.225Z,99.47
2018-11-13T01:56:17.426Z,100.00
2018-11-13T01:58:44.620Z,100.00
2018-11-13T02:01:11.757Z,100.00
2018-11-13T02:03:38.865Z,100.00
2018-11-13T02:06:06.267Z,100.00
2018-11-13T02:08:33.409Z,100.00
2018-11-13T02:11:00.570Z,100.00
2018-11-13T02:13:27.816Z,99.35
2018-11-13T02:15:54.945Z,100.00
2018-11-13T02:18:22.076Z,100.00
2018-11-13T02:20:49.248Z,100.00
2018-11-13T02:23:16.412Z,100.00
2018-11-13T02:25:43.552Z,100.00
2018-11-13T02:28:10.786Z,100.00
2018-11-13T02:30:37.977Z,100.00
2018-11-13T02:33:05.413Z,100.00
2018-11-13T02:35:32.628Z,100.00
2018-11-13T02:37:59.803Z,100.00
2018-11-13T02:40:26.977Z,100.00
2018-11-13T02:42:54.165Z,100.00
2018-11-13T02:45:21.325Z,100.00
2018-11-13T02:47:48.496Z,100.00
2018-11-13T02:50:16.880Z,100.00
2018-11-13T02:52:44.045Z,100.00
2018-11-13T02:55:11.726Z,100.00
2018-11-13T02:57:39.105Z,100.00
2018-11-13T03:00:09.541Z,100.00
2018-11-13T03:02:37.807Z,100.00
2018-11-13T03:05:06.229Z,100.00
2018-11-13T03:07:33.362Z,100.00
2018-11-13T03:10:00.509Z,100.00
2018-11-13T03:12:27.697Z,100.00
2018-11-13T03:14:54.840Z,100.00
2018-11-13T03:17:21.974Z,100.00
2018-11-13T03:19:49.187Z,100.00
2018-11-13T03:22:16.331Z,100.00
2018-11-13T03:24:43.437Z,100.00
2018-11-13T03:27:10.621Z,100.00
2018-11-13T03:29:37.777Z,100.00
2018-11-13T03:32:05.035Z,100.00
2018-11-13T03:34:32.365Z,100.00
2018-11-13T03:36:59.605Z,100.00
2018-11-13T03:39:26.725Z,100.00
2018-11-13T03:41:53.920Z,100.00
2018-11-13T03:44:21.037Z,100.00
2018-11-13T03:46:48.188Z,100.00
2018-11-13T03:49:16.470Z,100.00
2018-11-13T03:51:43.631Z,100.00
2018-11-13T03:54:10.773Z,100.00
2018-11-13T03:56:37.967Z,100.00
2018-11-13T03:59:05.119Z,100.00
2018-11-13T04:01:32.285Z,100.00
2018-11-13T04:04:02.772Z,100.00
2018-11-13T04:06:29.911Z,100.00
2018-11-13T04:08:57.067Z,100.00
2018-11-13T04:11:24.250Z,100.00
2018-11-13T04:13:51.410Z,100.00
2018-11-13T04:16:18.570Z,100.00
2018-11-13T04:18:45.778Z,100.00
2018-11-13T04:21:12.952Z,100.00
2018-11-13T04:23:40.082Z,100.00
2018-11-13T04:26:07.277Z,100.00
2018-11-13T04:28:34.428Z,100.00
2018-11-13T04:31:01.591Z,100.00
2018-11-13T04:33:28.804Z,100.00
2018-11-13T04:35:56.005Z,100.00
2018-11-13T04:38:23.145Z,100.00
2018-11-13T04:40:50.380Z,100.00
2018-11-13T04:43:17.530Z,100.00
2018-11-13T04:45:44.696Z,100.00
2018-11-13T04:48:11.905Z,100.00
2018-11-13T04:50:39.067Z,100.00
2018-11-13T04:53:06.218Z,100.00
2018-11-13T04:55:33.473Z,100.00
2018-11-13T04:58:00.592Z,100.00
2018-11-13T05:00:27.752Z,100.00
2018-11-13T05:02:55.048Z,100.00
2018-11-13T05:05:22.400Z,100.00
2018-11-13T05:07:50.843Z,100.00
2018-11-13T05:10:18.099Z,100.00
2018-11-13T05:12:46.098Z,100.00
2018-11-13T05:15:13.260Z,100.00
2018-11-13T05:17:41.197Z,100.00
2018-11-13T05:20:09.126Z,100.00
2018-11-13T05:22:36.301Z,100.00
2018-11-13T05:25:05.371Z,100.00
2018-11-13T05:27:32.505Z,100.00
2018-11-13T05:29:59.735Z,100.00
2018-11-13T05:32:27.099Z,100.00
2018-11-13T05:34:54.238Z,100.00
2018-11-13T05:37:21.464Z,100.00
2018-11-13T05:39:48.676Z,100.00
2018-11-13T05:42:15.827Z,100.00
2018-11-13T05:44:42.968Z,100.00
2018-11-13T05:47:10.425Z,100.00
2018-11-13T05:49:37.556Z,100.00
2018-11-13T05:52:05.128Z,100.00
2018-11-13T05:54:32.354Z,100.00
2018-11-13T05:56:59.496Z,100.00
2018-11-13T05:59:26.693Z,100.00
2018-11-13T06:01:53.875Z,100.00
2018-11-13T06:04:21.028Z,100.00
2018-11-13T06:06:48.176Z,100.00
2018-11-13T06:09:15.388Z,100.00
2018-11-13T06:11:42.562Z,100.00
2018-11-13T06:14:09.805Z,100.00
2018-11-13T06:16:36.986Z,100.00
2018-11-13T06:19:04.236Z,100.00
2018-11-13T06:21:31.438Z,100.00
2018-11-13T06:23:58.667Z,100.00
2018-11-13T06:26:25.818Z,100.00
2018-11-13T06:28:52.957Z,100.00
2018-11-13T06:31:20.214Z,100.00
2018-11-13T06:33:47.349Z,100.00
2018-11-13T06:36:14.484Z,100.00
2018-11-13T06:38:41.756Z,100.00
2018-11-13T06:41:09.004Z,100.00
2018-11-13T06:43:36.169Z,100.00
2018-11-13T06:46:03.373Z,100.00
2018-11-13T06:48:30.548Z,100.00
2018-11-13T06:50:57.781Z,100.00
2018-11-13T06:53:25.004Z,100.00
2018-11-13T06:55:56.684Z,100.00
2018-11-13T06:58:23.879Z,100.00
2018-11-13T07:00:51.158Z,100.00
2018-11-13T07:03:18.360Z,100.00
2018-11-13T07:05:45.545Z,100.00
2018-11-13T07:08:12.726Z,100.00
2018-11-13T07:10:39.907Z,100.00
2018-11-13T07:13:07.016Z,100.00
2018-11-13T07:15:34.205Z,100.00
2018-11-13T07:18:02.638Z,100.00
2018-11-13T07:20:31.101Z,100.00
2018-11-13T07:22:58.309Z,100.00
2018-11-13T07:25:25.627Z,100.00
2018-11-13T07:27:52.827Z,100.00
2018-11-13T07:30:20.793Z,100.00
2018-11-13T07:32:47.961Z,100.00
2018-11-13T07:35:16.161Z,100.00
2018-11-13T07:37:45.151Z,100.00
2018-11-13T07:40:12.376Z,100.00
2018-11-13T07:42:39.498Z,100.00
2018-11-13T07:45:08.888Z,100.00
2018-11-13T07:47:36.197Z,100.00
2018-11-13T07:50:04.265Z,100.00
2018-11-13T07:52:31.640Z,100.00
2018-11-13T07:54:58.844Z,100.00
2018-11-13T07:57:25.978Z,100.00
2018-11-13T07:59:53.146Z,100.00
2018-11-13T08:02:20.285Z,100.00
2018-11-13T08:04:47.848Z,100.00
2018-11-13T08:07:15.143Z,100.00
2018-11-13T08:09:42.686Z,100.00
2018-11-13T08:12:09.847Z,100.00
2018-11-13T08:14:37.007Z,100.00
2018-11-13T08:17:04.138Z,100.00
2018-11-13T08:19:31.330Z,100.00
2018-11-13T08:21:58.576Z,100.00
2018-11-13T08:24:25.744Z,100.00
2018-11-13T08:26:52.913Z,100.00
2018-11-13T08:29:20.176Z,100.00
2018-11-13T08:31:47.266Z,100.00
2018-11-13T08:34:15.879Z,100.00
2018-11-13T08:36:43.379Z,100.00
2018-11-13T08:39:12.133Z,100.00
2018-11-13T08:41:39.734Z,100.00
2018-11-13T08:44:07.952Z,100.00
2018-11-13T08:46:35.289Z,100.00
2018-11-13T08:49:02.572Z,100.00
2018-11-13T08:51:29.765Z,100.00
2018-11-13T08:53:57.309Z,100.00
2018-11-13T08:56:25.697Z,100.00
2018-11-13T08:58:53.165Z,100.00
2018-11-13T09:01:20.412Z,100.00
2018-11-13T09:03:47.565Z,100.00
2018-11-13T09:06:15.673Z,100.00
2018-11-13T09:08:42.835Z,100.00
2018-11-13T09:11:10.071Z,100.00
2018-11-13T09:13:37.627Z,100.00
2018-11-13T09:16:05.005Z,100.00
2018-11-13T09:18:32.268Z,100.00
2018-11-13T09:20:59.606Z,100.00
2018-11-13T09:23:27.417Z,100.00
2018-11-13T09:25:54.549Z,100.00
2018-11-13T09:28:21.785Z,100.00
2018-11-13T09:30:49.067Z,100.00
2018-11-13T09:33:16.070Z,100.00
2018-11-13T09:35:43.404Z,100.00
2018-11-13T09:38:10.540Z,100.00
2018-11-13T09:40:37.656Z,100.00
2018-11-13T09:43:05.062Z,100.00
2018-11-13T09:45:32.192Z,100.00
2018-11-13T09:47:59.328Z,100.00
2018-11-13T09:50:26.620Z,100.00
2018-11-13T09:52:53.843Z,100.00
2018-11-13T09:55:21.988Z,100.00
2018-11-13T09:57:49.305Z,100.00
2018-11-13T10:00:19.304Z,100.00
2018-11-13T10:02:48.021Z,100.00
2018-11-13T10:05:16.198Z,100.00
2018-11-13T10:07:43.868Z,100.00
2018-11-13T10:10:11.516Z,100.00
2018-11-13T10:12:38.781Z,100.00
2018-11-13T10:15:08.470Z,100.00
2018-11-13T10:17:35.771Z,100.00
2018-11-13T10:20:02.989Z,100.00
2018-11-13T10:22:30.134Z,100.00
2018-11-13T10:24:57.287Z,100.00
2018-11-13T10:27:24.470Z,100.00
2018-11-13T10:29:51.676Z,100.00
2018-11-13T10:32:18.802Z,100.00
2018-11-13T10:34:45.982Z,100.00
2018-11-13T10:37:13.152Z,100.00
2018-11-13T10:39:40.380Z,100.00
2018-11-13T10:42:07.575Z,100.00
2018-11-13T10:44:34.688Z,100.00
2018-11-13T10:47:01.806Z,100.00
2018-11-13T10:49:28.973Z,100.00
2018-11-13T10:51:56.132Z,100.00
2018-11-13T10:54:23.369Z,100.00
2018-11-13T10:56:50.609Z,100.00
2018-11-13T10:59:17.732Z,100.00
2018-11-13T11:01:50.974Z,100.00
2018-11-13T11:04:23.797Z,100.00
2018-11-13T11:06:51.069Z,100.00
2018-11-13T11:09:18.248Z,100.00
2018-11-13T11:11:45.377Z,100.00
2018-11-13T11:14:12.574Z,100.00
2018-11-13T11:16:39.702Z,100.00
2018-11-13T11:19:06.895Z,100.00
2018-11-13T11:21:34.045Z,100.00
2018-11-13T11:24:01.279Z,100.00
2018-11-13T11:26:28.518Z,100.00
2018-11-13T11:28:55.724Z,100.00
2018-11-13T11:31:22.854Z,100.00
2018-11-13T11:33:50.074Z,100.00
2018-11-13T11:36:17.283Z,100.00
2018-11-13T11:38:44.518Z,100.00
2018-11-13T11:41:11.599Z,100.00
2018-11-13T11:43:38.939Z,100.00
2018-11-13T11:46:06.069Z,100.00
2018-11-13T11:48:33.194Z,100.00
2018-11-13T11:51:00.386Z,100.00
2018-11-13T11:53:27.526Z,100.00
2018-11-13T11:55:54.657Z,100.00
2018-11-13T11:58:21.851Z,100.00
2018-11-13T12:00:49.148Z,100.00
2018-11-13T12:03:16.186Z,100.00
2018-11-13T12:05:43.360Z,100.00
2018-11-13T12:08:10.519Z,100.00
2018-11-13T12:10:37.733Z,100.00
2018-11-13T12:13:07.625Z,100.00
2018-11-13T12:15:34.748Z,100.00
2018-11-13T12:18:01.878Z,100.00
2018-11-13T12:20:29.072Z,100.00
2018-11-13T12:22:56.307Z,100.00
2018-11-13T12:25:23.441Z,100.00
2018-11-13T12:27:50.635Z,100.00
2018-11-13T12:30:19.113Z,100.00
2018-11-13T12:32:47.057Z,100.00
2018-11-13T12:35:15.324Z,100.00
2018-11-13T12:37:42.524Z,100.00
2018-11-13T12:40:12.117Z,100.00
2018-11-13T12:42:39.296Z,100.00
2018-11-13T12:45:06.965Z,100.00
2018-11-13T12:47:34.149Z,100.00
2018-11-13T12:50:01.496Z,100.00
2018-11-13T12:52:28.649Z,100.00
2018-11-13T12:54:55.816Z,100.00
2018-11-13T12:57:23.114Z,100.00
2018-11-13T12:59:50.232Z,100.00
2018-11-13T13:02:17.491Z,100.00
2018-11-13T13:04:44.659Z,100.00
2018-11-13T13:07:11.820Z,100.00
2018-11-13T13:09:38.982Z,100.00
2018-11-13T13:12:07.336Z,100.00
2018-11-13T13:14:34.548Z,100.00
2018-11-13T13:17:01.734Z,100.00
2018-11-13T13:19:28.938Z,100.00
2018-11-13T13:21:56.113Z,100.00
2018-11-13T13:24:23.318Z,100.00
2018-11-13T13:26:50.559Z,100.00
2018-11-13T13:29:17.745Z,100.00
2018-11-13T13:31:44.973Z,100.00
2018-11-13T13:34:12.242Z,100.00
2018-11-13T13:36:39.453Z,100.00
2018-11-13T13:39:07.567Z,100.00
2018-11-13T13:41:34.944Z,100.00
2018-11-13T13:44:02.236Z,100.00
2018-11-13T13:46:29.467Z,100.00
2018-11-13T13:48:56.761Z,100.00
2018-11-13T13:51:23.954Z,100.00
2018-11-13T13:53:51.190Z,100.00
2018-11-13T13:56:18.413Z,100.00
2018-11-13T13:58:45.605Z,100.00
2018-11-13T14:01:12.967Z,100.00
2018-11-13T14:03:40.122Z,100.00
2018-11-13T14:06:07.348Z,100.00
2018-11-13T14:08:34.545Z,100.00
2018-11-13T14:11:01.756Z,100.00
2018-11-13T14:13:28.933Z,100.00
2018-11-13T14:15:56.112Z,100.00
2018-11-13T14:18:23.338Z,100.00
2018-11-13T14:20:50.567Z,100.00
2018-11-13T14:23:17.773Z,100.00
2018-11-13T14:25:45.093Z,100.00
2018-11-13T14:28:12.241Z,100.00
2018-11-13T14:30:39.426Z,100.00
2018-11-13T14:33:08.005Z,100.00
2018-11-13T14:35:35.249Z,100.00
2018-11-13T14:38:02.822Z,100.00
2018-11-13T14:40:39.441Z,100.00
2018-11-13T14:43:06.909Z,100.00
2018-11-13T14:45:34.103Z,100.00
2018-11-13T14:48:01.445Z,100.00
2018-11-13T14:50:30.694Z,100.00
2018-11-13T14:52:58.036Z,100.00
2018-11-13T14:55:28.288Z,100.00
2018-11-13T14:57:55.933Z,100.00
2018-11-13T15:00:24.422Z,100.00
2018-11-13T15:02:52.141Z,100.00
2018-11-13T15:05:20.351Z,100.00
2018-11-13T15:07:48.893Z,100.00
2018-11-13T15:10:25.041Z,100.00
2018-11-13T15:12:52.218Z,100.00
2018-11-13T15:15:19.431Z,100.00
2018-11-13T15:17:46.655Z,100.00
2018-11-13T15:20:15.242Z,100.00
2018-11-13T15:22:44.240Z,100.00
2018-11-13T15:25:13.385Z,100.00
2018-11-13T15:27:42.924Z,100.00
2018-11-13T15:30:18.422Z,100.00
2018-11-13T15:32:54.146Z,100.00
2018-11-13T15:35:21.437Z,100.00
2018-11-13T15:37:48.597Z,100.00
2018-11-13T15:40:18.333Z,100.00
2018-11-13T15:42:47.684Z,100.00
2018-11-13T15:45:16.108Z,100.00
2018-11-13T15:47:44.085Z,100.00
2018-11-13T15:50:14.773Z,100.00
2018-11-13T15:52:44.865Z,100.00
2018-11-13T15:55:12.588Z,100.00
2018-11-13T15:57:40.615Z,100.00
2018-11-13T16:00:13.158Z,100.00
2018-11-13T16:02:41.242Z,100.00
2018-11-13T16:05:17.222Z,100.00
2018-11-13T16:07:44.494Z,100.00
2018-11-13T16:10:11.912Z,100.00
2018-11-13T16:12:39.251Z,100.00
2018-11-13T16:15:06.475Z,100.00
2018-11-13T16:17:33.693Z,100.00
2018-11-13T16:20:01.038Z,100.00
2018-11-13T16:22:28.267Z,100.00
2018-11-13T16:24:55.704Z,100.00
2018-11-13T16:27:22.927Z,100.00
2018-11-13T16:29:50.271Z,100.00
2018-11-13T16:32:17.441Z,100.00
2018-11-13T16:34:44.796Z,100.00
2018-11-13T16:37:11.956Z,100.00
2018-11-13T16:39:39.160Z,100.00
2018-11-13T16:42:06.603Z,100.00
2018-11-13T16:44:33.753Z,100.00
2018-11-13T16:47:01.024Z,100.00
2018-11-13T16:49:28.236Z,100.00
2018-11-13T16:51:55.394Z,100.00
2018-11-13T16:54:22.746Z,100.00
2018-11-13T16:56:53.344Z,100.00
2018-11-13T16:59:20.526Z,100.00
2018-11-13T17:01:47.690Z,100.00
2018-11-13T17:04:14.909Z,100.00
2018-11-13T17:06:42.184Z,100.00
2018-11-13T17:09:09.728Z,100.00
2018-11-13T17:11:37.104Z,100.00
2018-11-13T17:14:04.394Z,100.00
2018-11-13T17:16:31.709Z,100.00
2018-11-13T17:18:59.059Z,100.00
2018-11-13T17:21:26.438Z,100.00
2018-11-13T17:23:53.663Z,100.00
2018-11-13T17:26:20.941Z,100.00
2018-11-13T17:28:48.113Z,100.00
2018-11-13T17:31:15.317Z,100.00
2018-11-13T17:33:42.590Z,100.00
2018-11-13T17:36:09.769Z,100.00
2018-11-13T17:38:36.896Z,100.00
2018-11-13T17:41:04.326Z,100.00
2018-11-13T17:43:31.547Z,100.00
2018-11-13T17:45:58.705Z,100.00
2018-11-13T17:48:25.916Z,100.00
2018-11-13T17:50:53.086Z,100.00
2018-11-13T17:53:20.270Z,100.00
2018-11-13T17:55:47.484Z,100.00
2018-11-13T17:58:15.144Z,100.00
2018-11-13T18:00:44.604Z,100.00
2018-11-13T18:03:13.032Z,100.00
2018-11-13T18:05:40.626Z,100.00
2018-11-13T18:08:08.690Z,100.00
2018-11-13T18:10:37.200Z,100.00
2018-11-13T18:13:05.190Z,100.00
2018-11-13T18:15:32.373Z,100.00
2018-11-13T18:17:59.781Z,100.00
2018-11-13T18:20:30.885Z,100.00
2018-11-13T18:22:58.098Z,100.00
2018-11-13T18:25:25.410Z,100.00
2018-11-13T18:27:53.928Z,100.00
2018-11-13T18:30:25.157Z,100.00
2018-11-13T18:32:52.745Z,100.00
2018-11-13T18:35:21.248Z,100.00
2018-11-13T18:37:49.220Z,100.00
2018-11-13T18:40:17.419Z,100.00
2018-11-13T18:42:46.176Z,100.00
2018-11-13T18:45:16.396Z,100.00
2018-11-13T18:47:43.634Z,100.00
2018-11-13T18:50:44.858Z,100.00
2018-11-13T18:53:12.831Z,100.00
2018-11-13T18:55:40.268Z,100.00
2018-11-13T18:58:08.110Z,100.00
2018-11-13T19:00:36.543Z,100.00
2018-11-13T19:03:04.945Z,100.00
2018-11-13T19:05:32.433Z,100.00
2018-11-13T19:07:59.794Z,100.00
2018-11-13T19:10:34.240Z,100.00
2018-11-13T19:13:03.676Z,100.00
2018-11-13T19:15:32.570Z,100.00
2018-11-13T19:17:59.911Z,100.00
2018-11-13T19:20:27.393Z,100.00
2018-11-13T19:22:54.441Z,100.00
2018-11-13T19:25:24.696Z,100.00
2018-11-13T19:27:52.409Z,100.00
2018-11-13T19:30:20.464Z,100.00
2018-11-13T19:32:47.684Z,100.00
2018-11-13T19:35:15.476Z,100.00
2018-11-13T19:37:42.610Z,100.00
2018-11-13T19:40:12.649Z,100.00
2018-11-13T19:42:39.824Z,100.00
2018-11-13T19:45:07.588Z,100.00
2018-11-13T19:47:35.525Z,100.00
2018-11-13T19:50:03.637Z,100.00
2018-11-13T19:52:30.947Z,100.00
2018-11-13T19:54:58.313Z,100.00
2018-11-13T19:57:27.221Z,100.00
2018-11-13T19:59:54.352Z,100.00
2018-11-13T20:02:21.950Z,100.00
2018-11-13T20:04:49.210Z,100.00
2018-11-13T20:07:16.329Z,100.00
2018-11-13T20:09:43.628Z,100.00
2018-11-13T20:12:10.815Z,100.00
2018-11-13T20:14:37.973Z,100.00
2018-11-13T20:17:05.325Z,100.00
2018-11-13T20:19:32.502Z,100.00
2018-11-13T20:21:59.725Z,100.00
2018-11-13T20:24:26.960Z,100.00
2018-11-13T20:26:54.155Z,100.00
2018-11-13T20:29:21.330Z,100.00
2018-11-13T20:31:48.556Z,100.00
2018-11-13T20:34:15.782Z,100.00
2018-11-13T20:36:42.988Z,100.00
2018-11-13T20:39:11.736Z,100.00
2018-11-13T20:41:38.893Z,100.00
2018-11-13T20:44:06.241Z,100.00
2018-11-13T20:46:33.700Z,100.00
2018-11-13T20:49:00.909Z,100.00
2018-11-13T20:51:28.121Z,100.00
2018-11-13T20:53:55.348Z,100.00
2018-11-13T20:56:22.535Z,100.00
2018-11-13T20:58:49.716Z,100.00
2018-11-13T21:01:17.023Z,100.00
2018-11-13T21:03:44.191Z,100.00
2018-11-13T21:06:11.346Z,100.00
2018-11-13T21:08:38.603Z,100.00
2018-11-13T21:11:05.863Z,100.00
2018-11-13T21:13:33.016Z,100.00
2018-11-13T21:16:00.378Z,100.00
2018-11-13T21:18:27.505Z,100.00
2018-11-13T21:20:54.682Z,100.00
2018-11-13T21:23:22.074Z,100.00
2018-11-13T21:25:49.198Z,100.00
2018-11-13T21:28:16.403Z,100.00
2018-11-13T21:30:43.711Z,100.00
2018-11-13T21:33:10.771Z,100.00
2018-11-13T21:35:37.942Z,100.00
2018-11-13T21:38:05.570Z,100.00
2018-11-13T21:40:34.580Z,100.00
2018-11-13T21:43:01.749Z,100.00
2018-11-13T21:45:29.081Z,100.00
2018-11-13T21:47:56.283Z,100.00
2018-11-13T21:50:24.766Z,100.00
2018-11-13T21:52:52.027Z,100.00
2018-11-13T21:55:20.387Z,100.00
2018-11-13T21:57:47.694Z,100.00
2018-11-13T22:00:20.793Z,100.00
2018-11-13T22:02:51.772Z,100.00
2018-11-13T22:05:19.642Z,100.00
2018-11-13T22:07:47.236Z,100.00
2018-11-13T22:10:14.424Z,100.00
2018-11-13T22:12:41.646Z,100.00
2018-11-13T22:15:11.488Z,100.00
2018-11-13T22:17:38.410Z,100.00
2018-11-13T22:20:06.752Z,100.00
2018-11-13T22:22:34.226Z,100.00
2018-11-13T22:25:01.252Z,100.00
2018-11-13T22:27:28.649Z,100.00
2018-11-13T22:29:55.726Z,100.00
2018-11-13T22:32:22.971Z,100.00
2018-11-13T22:34:50.222Z,100.00
2018-11-13T22:37:17.453Z,100.00
2018-11-13T22:39:44.665Z,100.00
2018-11-13T22:42:11.797Z,100.00
2018-11-13T22:44:39.012Z,100.00
2018-11-13T22:47:06.178Z,100.00
2018-11-13T22:49:33.339Z,100.00
2018-11-13T22:52:00.616Z,100.00
2018-11-13T22:54:27.785Z,100.00
2018-11-13T22:56:54.996Z,100.00
2018-11-13T22:59:22.344Z,100.00
2018-11-13T23:01:50.244Z,100.00
2018-11-13T23:04:18.218Z,100.00
2018-11-13T23:06:45.412Z,100.00
2018-11-13T23:09:13.198Z,100.00
2018-11-13T23:11:40.361Z,100.00
2018-11-13T23:14:07.879Z,100.00
2018-11-13T23:16:35.778Z,100.00
2018-11-13T23:19:03.583Z,100.00
2018-11-13T23:21:30.832Z,100.00
2018-11-13T23:23:57.981Z,100.00
2018-11-13T23:26:25.212Z,100.00
2018-11-13T23:28:52.877Z,100.00
2018-11-13T23:31:20.655Z,100.00
2018-11-13T23:33:48.744Z,100.00
2018-11-13T23:36:16.097Z,100.00
2018-11-13T23:38:43.258Z,100.00
2018-11-13T23:41:10.414Z,100.00
2018-11-13T23:43:37.684Z,100.00
2018-11-13T23:46:05.467Z,100.00
2018-11-13T23:48:32.791Z,100.00
2018-11-13T23:50:59.984Z,100.00
2018-11-13T23:53:27.132Z,100.00
2018-11-13T23:55:54.263Z,100.00
2018-11-13T23:58:21.529Z,100.00
